Time;durP1;ratioP1;P1;durP2;ratioP2;P2;SDS_P1;SDS_P2;PMS_P1;PMS_P2;Temp;Humidity;BMP_temperature;BMP_pressure;BME280_temperature;BME280_humidity;BME280_pressure;Samples;Min_cycle;Max_cycle;Signal;HPM_P1;HPM_P2
2023/07/21 00:01:44;;;;;;;;;;;;;;;14.29;79.59;101198.31;4934957;29;19927;-84
2023/07/21 00:04:09;;;;;;;;;;;;;;;14.24;81.23;101200.25;4934402;29;20013;-84
2023/07/21 00:06:35;;;;;;;;;;;;;;;14.25;82.06;101199.34;4934566;29;19930;-83
2023/07/21 00:09:00;;;;;;;;;;;;;;;14.20;82.29;101197.69;4932915;29;19927;-84
2023/07/21 00:11:25;;;;;;;;;;;;;;;14.19;81.87;101192.41;4917307;29;19938;-83
2023/07/21 00:13:51;;;;;;;;;;;;;;;14.16;85.20;101187.19;4933914;29;19923;-83
2023/07/21 00:16:18;;;;;;;;;;;;;;;14.07;84.23;101193.69;4934624;29;19923;-84
2023/07/21 00:18:44;;;;;;;;;;;;;;;14.04;83.52;101195.53;4933032;29;20542;-84
2023/07/21 00:21:10;;;;;;;;;;;;;;;14.07;83.74;101198.09;4934000;29;20270;-84
2023/07/21 00:23:36;;;;;;;;;;;;;;;14.11;82.11;101191.78;4936087;29;19927;-84
2023/07/21 00:26:01;;;;;;;;;;;;;;;14.06;82.11;101193.72;4935992;29;19930;-84
2023/07/21 00:28:27;;;;;;;;;;;;;;;14.00;82.80;101189.47;4953177;29;19923;-84
2023/07/21 00:30:52;;;;;;;;;;;;;;;13.94;83.78;101185.16;4935737;29;20345;-83
2023/07/21 00:33:18;;;;;;;;;;;;;;;13.89;82.04;101188.91;4935885;29;19999;-84
2023/07/21 00:35:43;;;;;;;;;;;;;;;13.86;82.45;101183.66;4953393;29;19922;-82
2023/07/21 00:38:09;;;;;;;;;;;;;;;13.88;83.80;101187.16;4920298;29;19933;-83
2023/07/21 00:40:37;;;;;;;;;;;;;;;13.92;82.61;101179.03;4953190;29;20009;-82
2023/07/21 00:43:03;;;;;;;;;;;;;;;13.92;85.97;101186.13;4951527;29;20002;-82
2023/07/21 00:45:29;;;;;;;;;;;;;;;13.82;84.51;101185.53;4947762;28;20342;-82
2023/07/21 00:47:56;;;;;;;;;;;;;;;13.79;84.20;101188.28;4951406;29;20387;-82
2023/07/21 00:50:22;;;;;;;;;;;;;;;13.77;84.02;101182.13;4934783;29;20013;-82
2023/07/21 00:52:49;;;;;;;;;;;;;;;13.77;83.71;101182.13;4935486;29;19988;-82
2023/07/21 00:55:15;;;;;;;;;;;;;;;13.72;84.32;101176.09;4935463;29;19925;-82
2023/07/21 00:57:41;;;;;;;;;;;;;;;13.64;82.73;101173.66;4935583;29;20029;-82
2023/07/21 01:00:12;;;;;;;;;;;;;;;13.58;82.92;101165.84;4918855;29;19930;-83
2023/07/21 01:02:38;;;;;;;;;;;;;;;13.53;82.79;101168.66;4952857;29;19919;-82
2023/07/21 01:05:04;;;;;;;;;;;;;;;13.45;82.51;101164.44;4935264;29;19926;-82
2023/07/21 01:07:30;;;;;;;;;;;;;;;13.43;82.52;101166.31;4935489;29;19922;-82
2023/07/21 01:09:57;;;;;;;;;;;;;;;13.41;82.67;101163.69;4951136;28;20043;-81
2023/07/21 01:12:22;;;;;;;;;;;;;;;13.39;82.51;101168.16;4935764;29;19928;-82
2023/07/21 01:14:49;;;;;;;;;;;;;;;13.36;83.76;101154.97;4935945;29;19938;-81
2023/07/21 01:17:15;;;;;;;;;;;;;;;13.34;84.55;101152.34;4935990;29;19919;-82
2023/07/21 01:19:41;;;;;;;;;;;;;;;13.33;83.91;101163.03;4953033;29;20017;-82
2023/07/21 01:22:14;;;;;;;;;;;;;;;13.33;83.45;101150.59;4935952;29;19966;-82
2023/07/21 01:24:42;;;;;;;;;;;;;;;13.29;83.12;101148.06;4933167;29;19923;-82
2023/07/21 01:27:08;;;;;;;;;;;;;;;13.27;82.27;101155.22;4935828;29;20102;-81
2023/07/21 01:29:34;;;;;;;;;;;;;;;13.24;82.82;101149.94;4935523;29;19922;-81
2023/07/21 01:32:01;;;;;;;;;;;;;;;13.20;83.64;101149.16;4920014;29;19981;-81
2023/07/21 01:34:27;;;;;;;;;;;;;;;13.15;84.10;101143.09;4935618;29;20017;-81
2023/07/21 01:36:53;;;;;;;;;;;;;;;13.15;83.66;101142.22;4927373;29;19986;-81
2023/07/21 01:39:19;;;;;;;;;;;;;;;13.16;84.05;101139.53;4934813;29;20482;-81
2023/07/21 01:41:45;;;;;;;;;;;;;;;13.22;82.89;101143.78;4951092;29;20106;-82
2023/07/21 01:44:11;;;;;;;;;;;;;;;13.20;83.45;101138.50;4927715;29;19926;-82
2023/07/21 01:46:36;;;;;;;;;;;;;;;13.18;85.33;101136.81;4947985;29;20300;-82
2023/07/21 01:49:03;;;;;;;;;;;;;;;13.10;84.13;101134.38;4950757;29;20040;-81
2023/07/21 01:51:31;;;;;;;;;;;;;;;13.06;84.95;101133.59;4925557;29;20021;-81
2023/07/21 01:53:59;;;;;;;;;;;;;;;13.07;84.28;101129.13;4930442;29;20019;-81
2023/07/21 01:56:28;;;;;;;;;;;;;;;13.04;86.01;101130.09;4932518;29;19934;-82
2023/07/21 01:58:55;;;;;;;;;;;;;;;13.00;84.84;101128.44;4913366;29;19919;-81
2023/07/21 02:01:22;;;;;;;;;;;;;;;12.94;83.75;101125.09;4926801;29;20267;-82
2023/07/21 02:03:49;;;;;;;;;;;;;;;12.86;83.94;101118.19;4921476;29;19922;-82
2023/07/21 02:06:15;;;;;;;;;;;;;;;12.78;83.45;101114.84;4920288;29;19930;-82
2023/07/21 02:08:40;;;;;;;;;;;;;;;12.74;83.80;101121.16;4953153;29;19934;-83
2023/07/21 02:11:06;;;;;;;;;;;;;;;12.72;83.34;101123.00;4935379;29;19937;-82
2023/07/21 02:14:04;;;;;;;;;;;;;;;12.66;83.08;101118.72;4944707;29;20006;-82
2023/07/21 02:16:30;;;;;;;;;;;;;;;12.63;83.08;101117.91;4939517;29;19974;-82
2023/07/21 02:18:56;;;;;;;;;;;;;;;12.60;83.91;101123.31;4946726;29;19961;-82
2023/07/21 02:21:22;;;;;;;;;;;;;;;12.57;83.48;101118.09;4922769;29;19966;-82
2023/07/21 02:23:49;;;;;;;;;;;;;;;12.52;83.18;101119.97;4928656;29;19934;-82
2023/07/21 02:26:15;;;;;;;;;;;;;;;12.53;83.67;101116.41;4904536;29;19926;-82
2023/07/21 02:28:41;;;;;;;;;;;;;;;12.55;83.02;101120.75;4901421;29;20026;-82
2023/07/21 02:31:06;;;;;;;;;;;;;;;12.57;84.45;101124.25;4904691;29;19978;-82
2023/07/21 02:33:33;;;;;;;;;;;;;;;12.58;84.16;101107.41;4919938;29;19927;-82
2023/07/21 02:35:59;;;;;;;;;;;;;;;12.58;84.21;101115.38;4919734;29;19918;-82
2023/07/21 02:38:25;;;;;;;;;;;;;;;12.61;84.04;101106.44;4936637;29;19918;-81
2023/07/21 02:40:51;;;;;;;;;;;;;;;12.59;85.30;101110.94;4935314;29;19982;-82
2023/07/21 02:43:18;;;;;;;;;;;;;;;12.51;84.55;101110.25;4936554;29;19986;-81
2023/07/21 02:45:50;;;;;;;;;;;;;;;12.52;84.44;101107.56;4919087;29;20353;-82
2023/07/21 02:48:16;;;;;;;;;;;;;;;12.51;85.10;101113.78;4935343;29;19926;-82
2023/07/21 02:50:41;;;;;;;;;;;;;;;12.47;85.46;101107.69;4933744;29;19958;-82
2023/07/21 02:53:07;;;;;;;;;;;;;;;12.44;85.14;101104.25;4919322;29;20299;-82
2023/07/21 02:55:33;;;;;;;;;;;;;;;12.40;85.43;101102.56;4918987;29;19974;-81
2023/07/21 02:57:59;;;;;;;;;;;;;;;12.39;84.76;101107.00;4919555;29;19962;-82
2023/07/21 03:00:32;;;;;;;;;;;;;;;12.39;85.32;101103.50;4904171;29;20009;-82
2023/07/21 03:03:06;;;;;;;;;;;;;;;12.40;84.66;101099.91;4919161;29;20376;-82
2023/07/21 03:05:33;;;;;;;;;;;;;;;12.41;84.16;101104.28;4919070;29;20014;-81
2023/07/21 03:07:59;;;;;;;;;;;;;;;12.39;84.21;101095.53;4919040;29;19919;-81
2023/07/21 03:10:24;;;;;;;;;;;;;;;12.40;84.20;101102.56;4918983;29;19918;-82
2023/07/21 03:12:50;;;;;;;;;;;;;;;12.37;83.90;101103.53;4903325;29;19996;-81
2023/07/21 03:15:19;;;;;;;;;;;;;;;12.38;84.35;101101.72;4903844;29;19926;-81
2023/07/21 03:17:55;;;;;;;;;;;;;;;12.39;84.60;101107.00;4890079;29;19977;-81
2023/07/21 03:20:21;;;;;;;;;;;;;;;12.35;83.41;101099.16;4903461;29;19927;-82
2023/07/21 03:22:47;;;;;;;;;;;;;;;12.29;85.76;101107.25;4919776;29;20522;-81
2023/07/21 03:25:14;;;;;;;;;;;;;;;12.20;86.29;101100.41;4906576;29;19930;-82
2023/07/21 03:27:40;;;;;;;;;;;;;;;12.19;87.54;101098.66;4938026;29;19945;-82
2023/07/21 03:30:09;;;;;;;;;;;;;;;12.23;88.05;101098.53;4937871;29;19979;-82
2023/07/21 03:32:45;;;;;;;;;;;;;;;12.29;87.00;101099.28;4937845;29;19927;-81
2023/07/21 03:35:10;;;;;;;;;;;;;;;12.25;86.56;101104.69;4953615;29;19915;-82
2023/07/21 03:37:36;;;;;;;;;;;;;;;12.24;85.26;101104.75;4937558;29;19922;-81
2023/07/21 03:40:07;;;;;;;;;;;;;;;12.19;85.92;101109.25;4937295;29;20357;-82
2023/07/21 03:42:33;;;;;;;;;;;;;;;12.09;87.29;101107.75;4953223;29;19918;-82
2023/07/21 03:45:04;;;;;;;;;;;;;;;12.04;85.78;101103.44;4930868;29;19997;-82
2023/07/21 03:47:30;;;;;;;;;;;;;;;12.05;87.00;101105.16;4953032;29;19990;-81
2023/07/21 03:49:58;;;;;;;;;;;;;;;12.09;85.23;101102.44;4936875;29;19922;-81
2023/07/21 03:52:23;;;;;;;;;;;;;;;12.07;84.67;101102.50;4937024;29;20200;-81
2023/07/21 03:54:49;;;;;;;;;;;;;;;11.99;84.80;101096.47;4946001;29;19937;-82
2023/07/21 03:57:15;;;;;;;;;;;;;;;11.93;84.29;101091.31;4905247;29;20019;-81
2023/07/21 03:59:41;;;;;;;;;;;;;;;11.84;82.82;101095.91;4954148;29;20501;-82
2023/07/21 04:02:07;;;;;;;;;;;;;;;11.78;83.19;101095.16;4937055;29;19981;-81
2023/07/21 04:04:34;;;;;;;;;;;;;;;11.73;83.50;101094.41;4905511;29;20060;-81
2023/07/21 04:07:05;;;;;;;;;;;;;;;11.70;83.22;101095.34;4954370;29;19986;-81
2023/07/21 04:09:31;;;;;;;;;;;;;;;11.69;84.36;101084.75;4947525;29;20001;-81
2023/07/21 04:11:57;;;;;;;;;;;;;;;11.66;84.30;101083.03;4936807;29;19933;-81
2023/07/21 04:14:22;;;;;;;;;;;;;;;11.65;85.04;101086.63;4920426;29;19930;-81
2023/07/21 04:16:47;;;;;;;;;;;;;;;11.67;85.27;101081.25;4920786;29;20378;-81
2023/07/21 04:19:13;;;;;;;;;;;;;;;11.68;86.07;101078.59;4936005;29;20016;-82
2023/07/21 04:21:38;;;;;;;;;;;;;;;11.70;85.58;101079.44;4920701;29;19950;-81
2023/07/21 04:24:04;;;;;;;;;;;;;;;11.74;84.95;101082.88;4920068;29;20403;-82
2023/07/21 04:26:29;;;;;;;;;;;;;;;11.77;85.56;101074.84;4953714;29;19981;-81
2023/07/21 04:28:55;;;;;;;;;;;;;;;11.77;85.45;101070.44;4920517;29;20017;-81
2023/07/21 04:31:22;;;;;;;;;;;;;;;11.82;85.17;101067.66;4950114;29;20342;-81
2023/07/21 04:33:57;;;;;;;;;;;;;;;11.86;84.93;101065.81;4913313;29;19929;-81
2023/07/21 04:36:23;;;;;;;;;;;;;;;11.84;84.75;101061.41;4936146;29;19918;-83
2023/07/21 04:38:49;;;;;;;;;;;;;;;11.84;84.82;101069.38;4952117;29;19941;-82
2023/07/21 04:41:18;;;;;;;;;;;;;;;11.85;85.35;101064.94;4935805;29;19929;-82
2023/07/21 04:43:46;;;;;;;;;;;;;;;11.86;86.06;101069.31;4935905;29;19918;-82
2023/07/21 04:46:13;;;;;;;;;;;;;;;11.87;86.32;101064.91;4909634;29;20116;-83
2023/07/21 04:48:39;;;;;;;;;;;;;;;11.88;85.80;101064.03;4950380;29;19923;-83
2023/07/21 04:51:06;;;;;;;;;;;;;;;11.90;85.96;101067.53;4902150;29;19966;-83
2023/07/21 04:53:31;;;;;;;;;;;;;;;11.91;85.64;101072.78;4917782;29;19975;-82
2023/07/21 04:55:57;;;;;;;;;;;;;;;11.95;85.92;101073.59;4936453;29;20341;-83
2023/07/21 04:58:23;;;;;;;;;;;;;;;12.00;85.88;101069.91;4952465;28;19933;-82
2023/07/21 05:00:49;;;;;;;;;;;;;;;12.07;88.74;101070.63;4936413;29;19919;-83
2023/07/21 05:03:14;;;;;;;;;;;;;;;12.12;88.32;101070.53;4910878;29;19927;-83
2023/07/21 05:05:41;;;;;;;;;;;;;;;12.19;88.54;101075.66;4934564;29;19926;-83
2023/07/21 05:08:06;;;;;;;;;;;;;;;12.32;89.70;101078.00;4957059;28;20290;-83
2023/07/21 05:10:32;;;;;;;;;;;;;;;12.44;89.00;101077.69;4952276;28;20012;-83
2023/07/21 05:12:59;;;;;;;;;;;;;;;12.55;88.72;101072.09;4935920;29;19923;-83
2023/07/21 05:15:39;;;;;;;;;;;;;;;12.65;85.45;101073.56;4921957;29;20025;-84
2023/07/21 05:18:25;;;;;;;;;;;;;;;12.75;88.43;101072.41;4913734;29;20053;-83
2023/07/21 05:21:07;;;;;;;;;;;;;;;12.81;88.67;101071.38;4928653;29;20089;-83
2023/07/21 05:23:48;;;;;;;;;;;;;;;12.84;88.78;101076.63;4926865;29;20338;-83
2023/07/21 05:26:17;;;;;;;;;;;;;;;12.85;88.34;101073.03;4932018;29;19919;-83
2023/07/21 05:28:43;;;;;;;;;;;;;;;12.89;88.65;101078.22;4912871;29;19933;-83
2023/07/21 05:31:11;;;;;;;;;;;;;;;12.97;90.12;101074.50;4965978;28;20024;-84
2023/07/21 05:34:07;;;;;;;;;;;;;;;13.06;91.12;101074.25;4945705;29;20014;-84
2023/07/21 05:36:34;;;;;;;;;;;;;;;13.18;92.08;101073.88;4908990;29;19934;-84
2023/07/21 05:39:00;;;;;;;;;;;;;;;13.28;92.08;101079.84;4919403;29;20318;-83
2023/07/21 05:41:27;;;;;;;;;;;;;;;13.36;91.77;101080.47;4903322;29;20067;-85
2023/07/21 05:43:53;;;;;;;;;;;;;;;13.45;90.52;101074.91;4929339;29;19927;-83
2023/07/21 05:46:19;;;;;;;;;;;;;;;13.55;89.87;101075.50;4891666;29;19927;-85
2023/07/21 05:48:59;;;;;;;;;;;;;;;13.66;88.73;101073.34;4912252;29;19924;-85
2023/07/21 05:51:25;;;;;;;;;;;;;;;13.76;91.01;101080.13;4906655;29;19978;-85
2023/07/21 05:53:56;;;;;;;;;;;;;;;13.82;89.54;101076.41;4901133;29;19927;-85
2023/07/21 05:56:25;;;;;;;;;;;;;;;13.90;88.35;101090.34;4899959;29;19927;-85
2023/07/21 05:58:55;;;;;;;;;;;;;;;13.98;89.59;101080.31;4910191;29;20355;-85
2023/07/21 06:01:23;;;;;;;;;;;;;;;14.05;88.47;101082.81;4904436;29;20008;-84
2023/07/21 06:03:48;;;;;;;;;;;;;;;14.15;88.39;101077.13;4900121;29;19927;-84
2023/07/21 06:06:14;;;;;;;;;;;;;;;14.26;88.30;101073.22;4919050;29;19971;-85
2023/07/21 06:08:58;;;;;;;;;;;;;;;14.37;92.07;101068.41;4922911;29;19990;-84
2023/07/21 06:11:35;;;;;;;;;;;;;;;14.49;92.22;101070.66;4905692;29;19923;-85
2023/07/21 06:14:17;;;;;;;;;;;;;;;14.61;90.52;101074.72;4949552;29;20014;-84
2023/07/21 06:16:56;;;;;;;;;;;;;;;14.73;90.48;101068.09;4969008;28;19957;-84
2023/07/21 06:19:22;;;;;;;;;;;;;;;14.79;90.34;101068.75;4922402;29;19926;-85
2023/07/21 06:21:48;;;;;;;;;;;;;;;14.83;90.07;101067.69;4950306;29;19981;-84
2023/07/21 06:24:14;;;;;;;;;;;;;;;14.90;90.48;101059.47;4954263;29;19997;-84
2023/07/21 06:26:39;;;;;;;;;;;;;;;14.95;86.88;101062.84;4941213;28;20378;-81
2023/07/21 06:29:07;;;;;;;;;;;;;;;14.99;87.62;101062.69;4946065;29;20473;-83
2023/07/21 06:31:33;;;;;;;;;;;;;;;15.03;89.26;101067.00;4956361;28;20009;-83
2023/07/21 06:34:27;;;;;;;;;;;;;;;15.11;88.15;101068.47;4952982;28;19927;-83
2023/07/21 06:37:11;;;;;;;;;;;;;;;15.16;90.19;101070.06;4955572;29;19929;-82
2023/07/21 06:40:08;;;;;;;;;;;;;;;15.18;88.47;101062.88;4956910;28;19922;-82
2023/07/21 06:42:52;;;;;;;;;;;;;;;15.27;89.47;101067.84;4934320;29;20340;-82
2023/07/21 06:45:39;;;;;;;;;;;;;;;15.38;88.07;101064.78;4940579;29;19933;-82
2023/07/21 06:48:37;;;;;;;;;;;;;;;15.42;83.41;101069.06;4912426;29;19926;-83
2023/07/21 06:51:08;;;;;;;;;;;;;;;15.49;87.87;101072.38;4938872;29;19937;-82
2023/07/21 06:53:33;;;;;;;;;;;;;;;15.59;88.49;101068.41;4937752;29;19923;-81
2023/07/21 06:55:59;;;;;;;;;;;;;;;15.69;89.98;101069.81;4937787;29;19914;-81
2023/07/21 06:58:24;;;;;;;;;;;;;;;15.79;87.83;101065.00;4936332;29;19922;-81
2023/07/21 07:00:50;;;;;;;;;;;;;;;15.87;86.82;101067.34;4937330;29;19923;-82
2023/07/21 07:03:15;;;;;;;;;;;;;;;15.93;88.19;101060.91;4937654;29;19930;-81
2023/07/21 07:05:44;;;;;;;;;;;;;;;15.97;88.35;101066.03;4922006;29;19950;-82
2023/07/21 07:08:10;;;;;;;;;;;;;;;16.01;87.66;101066.81;4954840;29;19960;-81
2023/07/21 07:10:35;;;;;;;;;;;;;;;16.05;86.43;101068.44;4936577;29;19954;-82
2023/07/21 07:13:01;;;;;;;;;;;;;;;16.07;86.79;101058.53;4953282;29;20265;-82
2023/07/21 07:15:26;;;;;;;;;;;;;;;16.12;85.64;101057.44;4937414;29;19925;-82
2023/07/21 07:17:52;;;;;;;;;;;;;;;16.17;87.73;101061.69;4936488;29;19922;-82
2023/07/21 07:20:17;;;;;;;;;;;;;;;16.22;87.14;101063.25;4954259;29;19952;-82
2023/07/21 07:22:43;;;;;;;;;;;;;;;16.29;86.96;101059.38;4936811;29;19923;-82
2023/07/21 07:25:09;;;;;;;;;;;;;;;16.31;87.04;101052.16;4954150;29;19930;-82
2023/07/21 07:27:34;;;;;;;;;;;;;;;16.38;86.19;101046.56;4921182;29;20346;-82
2023/07/21 07:30:00;;;;;;;;;;;;;;;16.49;87.14;101047.84;4936734;29;20230;-82
2023/07/21 07:32:25;;;;;;;;;;;;;;;16.58;86.20;101048.38;4937270;29;20251;-84
2023/07/21 07:34:54;;;;;;;;;;;;;;;16.63;84.77;101055.25;4921054;29;19914;-84
2023/07/21 07:37:19;;;;;;;;;;;;;;;16.75;86.83;101059.19;4954492;29;20243;-84
2023/07/21 07:39:45;;;;;;;;;;;;;;;16.87;85.00;101056.03;4954180;29;19938;-83
2023/07/21 07:42:10;;;;;;;;;;;;;;;16.91;85.45;101059.41;4921437;29;20294;-84
2023/07/21 07:44:36;;;;;;;;;;;;;;;16.95;84.76;101064.56;4918765;29;19927;-83
2023/07/21 07:47:01;;;;;;;;;;;;;;;16.97;84.41;101059.16;4954893;29;20016;-83
2023/07/21 07:49:28;;;;;;;;;;;;;;;17.00;83.50;101059.00;4954553;29;20017;-82
2023/07/21 07:51:53;;;;;;;;;;;;;;;17.03;83.17;101064.22;4954527;29;19918;-82
2023/07/21 07:54:18;;;;;;;;;;;;;;;17.08;82.99;101059.53;4918312;29;19982;-82
2023/07/21 07:56:46;;;;;;;;;;;;;;;17.19;83.50;101067.06;4921428;29;19923;-82
2023/07/21 07:59:11;;;;;;;;;;;;;;;17.30;83.20;101066.56;4921029;29;19929;-82
2023/07/21 08:01:37;;;;;;;;;;;;;;;17.38;82.49;101061.72;4954377;29;20084;-82
2023/07/21 08:04:02;;;;;;;;;;;;;;;17.47;82.45;101063.97;4954251;28;19985;-82
2023/07/21 08:06:28;;;;;;;;;;;;;;;17.53;82.05;101062.81;4921266;29;19927;-82
2023/07/21 08:08:53;;;;;;;;;;;;;;;17.60;82.14;101057.09;4959431;28;20005;-82
2023/07/21 08:11:19;;;;;;;;;;;;;;;17.63;82.07;101062.31;4920628;29;19966;-82
2023/07/21 08:13:44;;;;;;;;;;;;;;;17.66;81.48;101061.31;4936475;29;20270;-82
2023/07/21 08:16:11;;;;;;;;;;;;;;;17.73;81.94;101057.38;4936162;29;19926;-82
2023/07/21 08:18:36;;;;;;;;;;;;;;;17.77;81.19;101060.78;4936681;29;20346;-82
2023/07/21 08:21:17;;;;;;;;;;;;;;;17.83;79.58;101063.22;4952323;28;19937;-82
2023/07/21 08:23:43;;;;;;;;;;;;;;;17.91;78.99;101063.69;4953322;29;19927;-81
2023/07/21 08:26:08;;;;;;;;;;;;;;;18.01;78.78;101061.44;4940156;29;19944;-81
2023/07/21 08:28:33;;;;;;;;;;;;;;;18.04;77.58;101063.94;4936132;29;20271;-81
2023/07/21 08:30:59;;;;;;;;;;;;;;;18.03;77.21;101064.91;4939636;29;19926;-81
2023/07/21 08:33:24;;;;;;;;;;;;;;;18.02;76.33;101060.47;4923391;29;19922;-81
2023/07/21 08:35:50;;;;;;;;;;;;;;;17.97;76.77;101059.84;4953491;29;19930;-81
2023/07/21 08:38:15;;;;;;;;;;;;;;;18.00;77.05;101067.72;4918108;29;19919;-81
2023/07/21 08:40:42;;;;;;;;;;;;;;;18.08;77.31;101070.91;4944225;29;19962;-80
2023/07/21 08:43:08;;;;;;;;;;;;;;;18.10;75.20;101068.13;4920231;29;19923;-81
2023/07/21 08:45:34;;;;;;;;;;;;;;;18.14;76.01;101077.75;4934027;29;20382;-81
2023/07/21 08:48:04;;;;;;;;;;;;;;;18.20;76.12;101066.72;4936092;29;19922;-81
2023/07/21 08:50:30;;;;;;;;;;;;;;;18.19;76.25;101063.19;4939421;29;19925;-79
2023/07/21 08:52:56;;;;;;;;;;;;;;;18.24;76.10;101062.94;4939641;29;20216;-79
2023/07/21 08:55:24;;;;;;;;;;;;;;;18.35;75.62;101063.28;4916439;29;19970;-80
2023/07/21 08:57:49;;;;;;;;;;;;;;;18.43;74.67;101062.91;4933825;29;20315;-79
2023/07/21 09:00:15;;;;;;;;;;;;;;;18.52;73.01;101066.91;4916676;29;19966;-79
2023/07/21 09:02:44;;;;;;;;;;;;;;;18.52;71.19;101065.13;4933823;29;20262;-79
2023/07/21 09:05:14;;;;;;;;;;;;;;;18.60;73.32;101067.41;4933744;29;20013;-79
2023/07/21 09:07:41;;;;;;;;;;;;;;;18.64;71.59;101055.53;4933230;29;19959;-79
2023/07/21 09:10:07;;;;;;;;;;;;;;;18.75;70.83;101061.22;4913638;29;19919;-79
2023/07/21 09:12:36;;;;;;;;;;;;;;;18.91;72.15;101058.63;4933992;29;19942;-79
2023/07/21 09:15:07;;;;;;;;;;;;;;;19.13;70.16;101061.88;4923464;29;20003;-78
2023/07/21 09:17:33;;;;;;;;;;;;;;;19.34;69.41;101054.50;4905902;29;19934;-78
2023/07/21 09:19:58;;;;;;;;;;;;;;;19.66;69.01;101061.72;4931943;29;20456;-78
2023/07/21 09:22:24;;;;;;;;;;;;;;;19.86;67.54;101057.94;4932882;29;19923;-78
2023/07/21 09:24:50;;;;;;;;;;;;;;;20.03;67.55;101055.13;4949775;29;19922;-79
2023/07/21 09:27:16;;;;;;;;;;;;;;;20.20;67.29;101054.13;4953184;29;20326;-78
2023/07/21 09:29:43;;;;;;;;;;;;;;;20.41;65.47;101054.69;4952686;29;20344;-79
2023/07/21 09:32:18;;;;;;;;;;;;;;;20.73;68.31;101046.53;4953466;29;19923;-78
2023/07/21 09:34:59;;;;;;;;;;;;;;;20.97;65.46;101045.03;4935442;29;20358;-79
2023/07/21 09:37:26;;;;;;;;;;;;;;;20.98;66.07;101049.44;4951597;28;19998;-78
2023/07/21 09:39:53;;;;;;;;;;;;;;;20.96;63.85;101035.22;4935234;29;19933;-76
2023/07/21 09:42:21;;;;;;;;;;;;;;;20.81;65.14;101037.03;4919766;29;20014;-78
2023/07/21 09:44:47;;;;;;;;;;;;;;;20.61;65.64;101042.75;4928631;29;20025;-75
2023/07/21 09:47:14;;;;;;;;;;;;;;;20.39;64.60;101038.63;4935350;29;19926;-75
2023/07/21 09:49:39;;;;;;;;;;;;;;;20.28;66.27;101032.19;4952664;29;19983;-76
2023/07/21 09:52:05;;;;;;;;;;;;;;;20.27;66.64;101042.06;4903628;29;19954;-76
2023/07/21 09:54:32;;;;;;;;;;;;;;;20.19;66.65;101045.19;4946501;29;19922;-76
2023/07/21 09:56:58;;;;;;;;;;;;;;;20.03;64.41;101036.31;4961059;28;19990;-75
2023/07/21 09:59:24;;;;;;;;;;;;;;;19.93;66.70;101038.69;4952075;29;19994;-75
2023/07/21 10:01:51;;;;;;;;;;;;;;;19.81;64.34;101041.22;4952459;29;20397;-75
2023/07/21 10:04:18;;;;;;;;;;;;;;;19.79;65.53;101041.28;4963752;28;19949;-75
2023/07/21 10:06:43;;;;;;;;;;;;;;;19.84;66.24;101041.03;4952489;29;20025;-75
2023/07/21 10:09:09;;;;;;;;;;;;;;;19.93;66.70;101033.28;4950077;29;20146;-76
2023/07/21 10:11:34;;;;;;;;;;;;;;;20.23;66.95;101031.56;4952400;29;20013;-75
2023/07/21 10:14:00;;;;;;;;;;;;;;;20.67;66.58;101033.44;4952319;29;19929;-75
2023/07/21 10:16:27;;;;;;;;;;;;;;;21.09;64.82;101032.59;4952073;29;19923;-75
2023/07/21 10:19:00;;;;;;;;;;;;;;;21.42;62.88;101031.47;4951790;29;20330;-75
2023/07/21 10:21:29;;;;;;;;;;;;;;;21.67;63.61;101034.31;4947493;29;19922;-75
2023/07/21 10:23:59;;;;;;;;;;;;;;;21.97;63.49;101021.59;4921242;29;19927;-76
2023/07/21 10:26:24;;;;;;;;;;;;;;;22.32;63.42;101013.84;4952207;29;20357;-75
2023/07/21 10:28:51;;;;;;;;;;;;;;;22.66;58.23;101017.78;4952107;29;19918;-75
2023/07/21 10:31:26;;;;;;;;;;;;;;;22.80;59.46;101015.94;4934798;29;19953;-76
2023/07/21 10:34:06;;;;;;;;;;;;;;;22.79;58.80;101016.91;4955636;29;20019;-76
2023/07/21 10:36:47;;;;;;;;;;;;;;;22.68;55.61;101020.38;4955915;29;19973;-75
2023/07/21 10:39:16;;;;;;;;;;;;;;;22.47;56.82;101017.31;4955375;29;20217;-75
2023/07/21 10:41:42;;;;;;;;;;;;;;;22.29;55.98;101014.06;4955535;29;20349;-76
2023/07/21 10:44:08;;;;;;;;;;;;;;;22.06;56.49;101018.28;4957893;28;19974;-75
2023/07/21 10:46:34;;;;;;;;;;;;;;;22.02;58.31;101016.75;4938242;29;19965;-75
2023/07/21 10:49:00;;;;;;;;;;;;;;;22.09;55.37;101013.53;4955880;29;19977;-75
2023/07/21 10:51:25;;;;;;;;;;;;;;;21.92;54.31;101016.50;4955790;29;19961;-75
2023/07/21 10:53:50;;;;;;;;;;;;;;;21.67;56.65;101020.81;4953978;29;20389;-75
2023/07/21 10:56:16;;;;;;;;;;;;;;;21.43;54.12;101014.34;4953150;29;19981;-75
2023/07/21 10:58:41;;;;;;;;;;;;;;;21.31;56.77;101015.09;4955547;29;19977;-75
2023/07/21 11:01:06;;;;;;;;;;;;;;;21.13;56.88;101018.00;4954614;29;19918;-75
2023/07/21 11:03:32;;;;;;;;;;;;;;;20.83;56.73;101012.72;4955306;29;19989;-75
2023/07/21 11:05:58;;;;;;;;;;;;;;;20.52;57.83;101019.94;4922353;29;20005;-75
2023/07/21 11:08:26;;;;;;;;;;;;;;;20.36;60.59;101032.59;4952330;28;19923;-75
2023/07/21 11:10:52;;;;;;;;;;;;;;;19.93;63.64;101044.06;4951313;29;20285;-76
2023/07/21 11:13:18;;;;;;;;;;;;;;;19.60;64.59;101054.84;4953918;29;19918;-75
2023/07/21 11:16:03;;;;;;;;;;;;;;;19.27;66.68;101084.44;4955117;29;19997;-74
2023/07/21 11:18:29;;;;;;;;;;;;;;;18.61;70.73;101112.91;4921326;29;21631;-76
2023/07/21 11:20:55;;;;;;;;;;;;;;;18.31;72.39;101123.38;4946794;29;19919;-79
2023/07/21 11:23:21;;;;;;;;;;;;;;;17.97;74.49;101116.97;4947980;29;20503;-80
2023/07/21 11:26:06;;;;;;;;;;;;;;;17.55;76.35;101123.38;4903670;29;19922;-80
2023/07/21 11:28:32;;;;;;;;;;;;;;;17.23;75.82;101113.28;4918635;29;19923;-77
2023/07/21 11:31:00;;;;;;;;;;;;;;;16.98;77.85;101111.72;4934676;29;19918;-77
2023/07/21 11:33:38;;;;;;;;;;;;;;;16.81;77.80;101101.75;4934533;29;19941;-75
2023/07/21 11:36:12;;;;;;;;;;;;;;;16.63;79.07;101098.03;4916690;29;19919;-75
2023/07/21 11:38:38;;;;;;;;;;;;;;;16.50;78.36;101089.69;4916167;29;20335;-75
2023/07/21 11:41:07;;;;;;;;;;;;;;;16.52;77.22;101097.66;4945802;29;19930;-75
2023/07/21 11:43:45;;;;;;;;;;;;;;;16.53;76.64;101086.00;4930509;29;20247;-76
2023/07/21 11:46:19;;;;;;;;;;;;;;;16.65;78.04;101081.94;4943628;29;20092;-76
2023/07/21 11:48:47;;;;;;;;;;;;;;;16.78;80.56;101080.50;4926526;29;20018;-77
2023/07/21 11:51:13;;;;;;;;;;;;;;;16.92;79.55;101074.53;4923478;29;19919;-77
2023/07/21 11:53:45;;;;;;;;;;;;;;;17.09;78.83;101069.31;4904447;29;19927;-78
2023/07/21 11:56:11;;;;;;;;;;;;;;;17.24;79.21;101069.53;4914297;29;19919;-78
2023/07/21 11:58:36;;;;;;;;;;;;;;;17.37;75.89;101068.03;4916940;29;20017;-78
2023/07/21 12:01:06;;;;;;;;;;;;;;;17.41;78.37;101077.66;4903968;29;20434;-77
2023/07/21 12:03:35;;;;;;;;;;;;;;;17.46;80.62;101066.72;4902641;29;19930;-79
2023/07/21 12:06:01;;;;;;;;;;;;;;;17.53;81.78;101061.03;4917776;29;19997;-78
2023/07/21 12:08:26;;;;;;;;;;;;;;;17.51;80.05;101052.19;4934284;29;20311;-78
2023/07/21 12:10:51;;;;;;;;;;;;;;;17.49;82.96;101055.88;4901707;29;20017;-77
2023/07/21 12:13:17;;;;;;;;;;;;;;;17.47;80.30;101069.31;4917640;29;19943;-77
2023/07/21 12:15:42;;;;;;;;;;;;;;;17.40;81.11;101076.78;4917438;29;19930;-77
2023/07/21 12:18:08;;;;;;;;;;;;;;;17.36;80.92;101087.72;4917776;29;19923;-77
2023/07/21 12:20:33;;;;;;;;;;;;;;;17.29;83.93;101102.31;4917652;29;20525;-77
2023/07/21 12:22:58;;;;;;;;;;;;;;;17.19;85.35;101116.09;4918442;29;19953;-74
2023/07/21 12:25:24;;;;;;;;;;;;;;;17.17;85.80;101117.13;4952498;29;20017;-78
2023/07/21 12:27:50;;;;;;;;;;;;;;;17.04;86.10;101111.44;4936988;29;19994;-76
2023/07/21 12:30:15;;;;;;;;;;;;;;;16.96;85.37;101108.22;4936291;29;19961;-75
2023/07/21 12:32:41;;;;;;;;;;;;;;;16.86;84.75;101110.44;4953406;29;19964;-75
2023/07/21 12:35:07;;;;;;;;;;;;;;;16.80;82.87;101107.19;4953399;29;19926;-76
2023/07/21 12:37:32;;;;;;;;;;;;;;;16.67;85.77;101102.31;4953453;29;19953;-76
2023/07/21 12:39:58;;;;;;;;;;;;;;;16.62;85.37;101104.34;4921513;29;19922;-76